Alte Ems Airfield

METAR EDWE TAF EDWE
10 °C
°C
-
°C
24m
Edad
00:14:20
LT
23:14
UTC
0 ft

1.000

2.000

3.000

4.000

5.000

FEW 4.400
VFR
<?= Yii::t('app', 'Wind direction') ?> <?= Yii::t('app', 'of'); ?>
200°
06:31
Amanecer
82%
Humedad
Cizalladura del viento
Cerrado/Nieve
Alcance visual RWY
Estado de la RWY
Visibilidad vert.
Visibilidad mínima
CAVOK
Tendencia
Corrección
Informe especial
1008 hPa
QNH
METAR EDWE 212250Z AUTO 20009KT 9999 // FEW044/// 10/07 Q1008
Nubes escasas
9 kt
9 kt
10 km+
Visibilidad
No
Cielo nuboso
9 kt
Viento
metar-taf.com/DE-0095

Metar-Taf.com

Decodificador visual

Nosotros y terceros seguimos tu comportamiento en Internet en nuestro sitio web con cookies. Si continúas, asumimos que estás de acuerdo con nuestra Política de cookies.